Flight Track Log - Related Links

Times and Time Zones

All times are in EDT time to prevent confusion due to time zone crossing. See the EJA922 flight status page for this flight to view local times or setup timezone preferences in your user account.


Time Position Orientation Groundspeed Altitude Reporting Facility
EDT Latitude Longitude Course Direction KTS MPH feet Rate Location/Type
Fri 01:02:42 PM 40.7833 -74.1000 78° East 264 304 5,000  Level New York TRACON
Fri 01:03:42 PM 40.8000 -74.0000 78° East 271 312 7,200 2,600 Climbing New York TRACON
Fri 01:04:42 PM 40.8333 -73.9000 66° East 283 326 10,200 2,434 Climbing New York TRACON
Fri 01:06:37 PM 40.9569 -73.7456 43° Northeast 371 427 14,300 2,324 Climbing Boston Center
Fri 01:07:35 PM 41.0453 -73.6731 32° Northeast 371 427 16,900 2,471 Climbing Boston Center
Fri 01:08:36 PM 41.1378 -73.5978 31° Northeast 379 436 19,200 1,918 Climbing Boston Center
Fri 01:09:37 PM 41.2344 -73.5194 31° Northeast 390 449 20,800 1,664 Climbing Boston Center
Fri 01:10:35 PM 41.3353 -73.4353 32° Northeast 410 472 22,500 1,373 Climbing Boston Center
Fri 01:11:35 PM 41.4403 -73.3456 33° Northeast 425 489 23,500 1,082 Climbing Boston Center
Fri 01:12:37 PM 41.5369 -73.2444 38° Northeast 437 503 24,700 1,200 Climbing Boston Center
Fri 01:13:35 PM 41.6314 -73.1428 39° Northeast 437 503 25,900 1,169 Climbing Boston Center
Fri 01:14:35 PM 41.7542 -73.1386 North 413 475 27,000 1,190 Climbing Boston Center
Fri 01:15:36 PM 41.8731 -73.1594 353° North 413 475 28,300 1,180 Climbing Boston Center
Fri 01:16:37 PM 41.9811 -73.1717 355° North 418 481 29,400 1,091 Climbing Boston Center
Fri 01:17:37 PM 42.1103 -73.1986 351° North 439 505 30,500 814 Climbing Boston Center
Fri 01:18:35 PM 42.2436 -73.2169 354° North 469 540 31,000 252 Climbing Boston Center
Fri 01:19:36 PM 42.4025 -73.1261 23° Northeast 499 574 31,000  Level Boston Center
Fri 01:20:37 PM 42.5139 -72.9556 48° Northeast 527 606 31,000  Level Boston Center
Fri 01:21:35 PM 42.6228 -72.7814 50° Northeast 555 639 31,000  Level Boston Center
Fri 01:22:36 PM 42.7378 -72.6181 46° Northeast 574 661 31,000  Level Boston Center
Fri 01:23:36 PM 42.8486 -72.4486 48° Northeast 595 685 31,000  Level Boston Center
Fri 01:25:00 PM 42.8527 -72.5035 276° West  Level Estimated
Fri 01:32:00 PM 42.8728 -72.7783 276° West  Level Estimated
Fri 01:33:00 PM 42.8756 -72.8176 276° West  Level Estimated
Fri 01:34:00 PM 42.8784 -72.8569 276° West  Level Estimated
Fri 01:35:00 PM 42.8812 -72.8961 276° West  Level Estimated
Fri 01:36:00 PM 42.8840 -72.9354 276° West  Level Estimated
Fri 01:37:00 PM 42.8867 -72.9747 275° West  Level Estimated
Fri 01:38:00 PM 42.8895 -73.0140 275° West  Level Estimated
Fri 01:39:00 PM 42.8922 -73.0533 275° West  Level Estimated
Fri 01:40:00 PM 42.8950 -73.0926 275° West  Level Estimated
Fri 01:41:00 PM 42.8977 -73.1319 275° West  Level Estimated
Fri 01:42:00 PM 42.9004 -73.1712 275° West  Level Estimated
Fri 01:43:00 PM 42.9030 -73.2105 275° West  Level Estimated
Fri 01:44:00 PM 42.9057 -73.2498 275° West  Level Estimated
Fri 01:45:00 PM 42.9084 -73.2891 275° West  Level Estimated
Fri 01:46:00 PM 42.9110 -73.3284 275° West  Level Estimated
Fri 01:47:00 PM 42.9137 -73.3677 275° West  Level Estimated
Fri 01:48:00 PM 42.9163 -73.4070 275° West  Level Estimated
Fri 01:49:00 PM 42.9189 -73.4464 275° West  Level Estimated
Fri 01:50:00 PM 42.9215 -73.4857 275° West  Level Estimated
Fri 01:51:00 PM 42.9240 -73.5250 275° West  Level Estimated
Fri 01:52:00 PM 42.9266 -73.5643 275° West  Level Estimated
Fri 01:53:00 PM 42.9291 -73.6037 275° West  Level Estimated
Fri 01:54:00 PM 42.9317 -73.6430 275° West  Level Estimated
Fri 01:55:00 PM 42.9342 -73.6824 275° West  Level Estimated
Fri 01:56:00 PM 42.9367 -73.7217 275° West  Level Estimated
Fri 01:57:00 PM 42.9392 -73.7611 275° West  Level Estimated
Fri 01:58:00 PM 42.9417 -73.8004 275° West  Level Estimated
Fri 01:59:00 PM 42.9441 -73.8398 275° West  Level Estimated
Fri 02:00:00 PM 42.9466 -73.8791 275° West  Level Estimated
Fri 02:01:00 PM 42.9490 -73.9185 275° West  Level Estimated
Fri 02:02:00 PM 42.9515 -73.9579 275° West  Level Estimated
Fri 02:03:00 PM 42.9539 -73.9972 275° West  Level Estimated
Fri 02:04:00 PM 42.9563 -74.0366 275° West  Level Estimated
Fri 02:05:00 PM 42.9587 -74.0760 275° West  Level Estimated
Fri 02:06:00 PM 42.9610 -74.1154 275° West  Level Estimated
Fri 02:07:00 PM 42.9634 -74.1547 275° West  Level Estimated
Fri 02:08:00 PM 42.9657 -74.1941 275° West  Level Estimated
Fri 02:09:00 PM 42.9681 -74.2335 275° West  Level Estimated
Fri 02:10:00 PM 42.9704 -74.2729 275° West  Level Estimated
Fri 02:11:00 PM 42.9727 -74.3123 275° West  Level Estimated
Fri 02:12:00 PM 42.9750 -74.3517 275° West  Level Estimated
Fri 02:13:00 PM 42.9773 -74.3911 275° West  Level Estimated
Fri 02:14:00 PM 42.9795 -74.4305 275° West  Level Estimated
Fri 02:15:00 PM 42.9818 -74.4699 274° West  Level Estimated
Fri 02:16:00 PM 42.9840 -74.5093 274° West  Level Estimated
Fri 02:17:00 PM 42.9862 -74.5487 274° West  Level Estimated
Fri 02:18:00 PM 42.9884 -74.5881 274° West  Level Estimated
Fri 02:19:00 PM 42.9907 -74.6275 274° West  Level Estimated
Fri 02:20:00 PM 42.9928 -74.6670 274° West  Level Estimated
Fri 02:21:00 PM 42.9950 -74.7064 274° West  Level Estimated
Fri 02:22:00 PM 42.9972 -74.7458 274° West  Level Estimated
Fri 02:23:00 PM 42.9993 -74.7852 274° West  Level Estimated
Fri 02:24:00 PM 43.0014 -74.8247 274° West  Level Estimated
Fri 02:25:00 PM 43.0036 -74.8641 274° West  Level Estimated
Fri 02:26:00 PM 43.0056 -74.9035 274° West  Level Estimated
Fri 02:27:00 PM 43.0077 -74.9430 274° West  Level Estimated
Fri 02:28:00 PM 43.0098 -74.9824 274° West  Level Estimated
Fri 02:29:00 PM 43.0119 -75.0219 274° West  Level Estimated
Fri 02:30:00 PM 43.0139 -75.0613 274° West  Level Estimated
Fri 02:31:00 PM 43.0160 -75.1008 274° West  Level Estimated
Fri 02:32:00 PM 43.0180 -75.1402 274° West  Level Estimated
Fri 02:33:00 PM 43.0200 -75.1796 274° West  Level Estimated
Fri 02:34:00 PM 43.0220 -75.2191 274° West  Level Estimated
Fri 02:35:00 PM 43.0240 -75.2586 274° West  Level Estimated
Fri 02:36:00 PM 43.0259 -75.2980 274° West  Level Estimated
Fri 02:37:00 PM 43.0279 -75.3375 274° West  Level Estimated
Fri 02:38:00 PM 43.0298 -75.3770 274° West  Level Estimated
Fri 02:39:00 PM 43.0317 -75.4164 274° West  Level Estimated
Fri 02:40:00 PM 43.0337 -75.4559 274° West  Level Estimated
Fri 02:41:00 PM 43.0356 -75.4954 274° West  Level Estimated
Fri 02:42:00 PM 43.0374 -75.5349 274° West  Level Estimated
Fri 02:43:00 PM 43.0393 -75.5743 274° West  Level Estimated
Fri 02:44:00 PM 43.0412 -75.6138 274° West  Level Estimated
Fri 02:45:00 PM 43.0430 -75.6533 274° West  Level Estimated
Fri 02:46:00 PM 43.0448 -75.6928 274° West  Level Estimated
Fri 02:47:00 PM 43.0467 -75.7323 274° West  Level Estimated
Fri 02:48:00 PM 43.0485 -75.7718 274° West  Level Estimated
Fri 02:49:00 PM 43.0503 -75.8112 274° West  Level Estimated
Fri 02:50:00 PM 43.0520 -75.8507 274° West  Level Estimated
Fri 02:51:00 PM 43.0538 -75.8902 274° West  Level Estimated
Fri 02:52:00 PM 43.0555 -75.9297 273° West  Level Estimated
Fri 02:53:00 PM 43.0573 -75.9692 273° West  Level Estimated
Fri 02:54:00 PM 43.0590 -76.0087 273° West  Level Estimated
Fri 02:55:00 PM 43.0607 -76.0482 273° West  Level Estimated
Fri 02:56:00 PM 43.0624 -76.0878 273° West  Level Estimated
Fri 02:57:00 PM 43.0641 -76.1273 273° West  Level Estimated
Fri 02:58:00 PM 43.0658 -76.1668 273° West  Level Estimated
Fri 02:59:00 PM 43.0674 -76.2063 273° West  Level Estimated
Fri 03:00:00 PM 43.0691 -76.2458 273° West  Level Estimated
Fri 03:01:00 PM 43.0707 -76.2853 273° West  Level Estimated
Fri 03:02:00 PM 43.0723 -76.3249 273° West  Level Estimated
Fri 03:03:00 PM 43.0739 -76.3644 273° West  Level Estimated
Fri 03:04:00 PM 43.0755 -76.4039 273° West  Level Estimated
Fri 03:05:00 PM 43.0771 -76.4434 273° West  Level Estimated
Fri 03:06:00 PM 43.0786 -76.4830 273° West  Level Estimated
Fri 03:07:00 PM 43.0802 -76.5225 273° West  Level Estimated
Fri 03:08:00 PM 43.0817 -76.5620 273° West  Level Estimated
Fri 03:09:00 PM 43.0832 -76.6016 273° West  Level Estimated
Fri 03:10:00 PM 43.0847 -76.6411 273° West  Level Estimated
Fri 03:11:00 PM 43.0862 -76.6806 273° West  Level Estimated
Fri 03:12:00 PM 43.0877 -76.7202 273° West  Level Estimated
Fri 03:13:00 PM 43.0892 -76.7597 273° West  Level Estimated
Fri 03:14:00 PM 43.0906 -76.7993 273° West  Level Estimated
Fri 03:15:00 PM 43.0920 -76.8388 273° West  Level Estimated
Fri 03:16:00 PM 43.0935 -76.8784 273° West  Level Estimated
Fri 03:17:00 PM 43.0949 -76.9179 273° West  Level Estimated
Fri 03:18:00 PM 43.0963 -76.9575 273° West  Level Estimated
Fri 03:19:00 PM 43.0977 -76.9970 273° West  Level Estimated
Fri 03:20:00 PM 43.0990 -77.0366 273° West  Level Estimated
Fri 03:21:00 PM 43.1004 -77.0761 273° West  Level Estimated
Fri 03:22:00 PM 43.1017 -77.1157 273° West  Level Estimated
Fri 03:23:00 PM 43.1031 -77.1553 273° West  Level Estimated
Fri 03:24:00 PM 43.1044 -77.1948 273° West  Level Estimated
Fri 03:25:00 PM 43.1057 -77.2344 273° West  Level Estimated
Fri 03:26:00 PM 43.1070 -77.2739 273° West  Level Estimated
Fri 03:27:00 PM 43.1082 -77.3135 273° West  Level Estimated
Fri 03:28:00 PM 43.1095 -77.3531 273° West  Level Estimated
Fri 03:29:00 PM 43.1107 -77.3926 272° West  Level Estimated
Fri 03:30:00 PM 43.1120 -77.4322 272° West  Level Estimated

Login

Don't have an account? Register now (free) for customized features, flight alerts, and more!